Happy Valley, Pennsylvania
Current Conditions -  °F | °C
As of 8:53 PM on Monday 24 Nov 2014 (Local Time) from KSEG Reporting Station
Scattered Clouds Scattered Clouds  
Wind Chill: 59°   Ceiling: Unl
Heat Index: 59°   Visibility: 10mi
Dew Point: 50°   Wind: 3mph
Humidity: 72%   Direction: 300°WNW
Pressure: 29.66"   Gusts: NA
Location:  40.8606°N, 76.551°W
Report Text: KSEG 250153Z AUTO 30003KT 10SM SCT090 15/10 A2966 RMK AO2 SLP040 T01500100
Loading
Personal Weather Stations






























Interactive Weather Map New forecast layout! Learn more

10-Day Weather Forecast

Advertisements
Track Severe Weather on mobile